createdAt,value
2019-04-30T00:02:03.029Z,80.80
2019-04-30T00:04:37.068Z,80.40
2019-04-30T00:06:59.533Z,80.50
2019-04-30T00:09:26.416Z,80.10
2019-04-30T00:11:57.892Z,80.20
2019-04-30T00:14:21.165Z,80.10
2019-04-30T00:16:47.566Z,80.00
2019-04-30T00:19:15.815Z,79.80
2019-04-30T00:21:42.117Z,79.30
2019-04-30T00:24:10.385Z,79.20
2019-04-30T00:26:39.931Z,79.20
2019-04-30T00:29:05.211Z,79.00
2019-04-30T00:31:34.839Z,79.00
2019-04-30T00:34:01.527Z,80.10
2019-04-30T00:36:33.957Z,78.90
2019-04-30T00:38:57.267Z,79.20
2019-04-30T00:41:25.537Z,78.60
2019-04-30T00:43:52.013Z,78.10
2019-04-30T00:46:25.638Z,78.40
2019-04-30T00:48:46.710Z,78.50
2019-04-30T00:51:18.182Z,78.60
2019-04-30T00:53:43.836Z,78.50
2019-04-30T00:56:11.576Z,78.20
2019-04-30T00:58:37.944Z,78.10
2019-04-30T01:01:25.297Z,78.10
2019-04-30T01:04:08.867Z,78.00
2019-04-30T01:06:35.363Z,78.10
2019-04-30T01:09:05.375Z,78.50
2019-04-30T01:11:31.928Z,78.50
2019-04-30T01:13:59.089Z,78.70
2019-04-30T01:16:30.200Z,78.50
2019-04-30T01:18:53.962Z,78.20
2019-04-30T01:21:20.452Z,78.10
2019-04-30T01:23:54.383Z,78.10
2019-04-30T01:26:18.708Z,78.10
2019-04-30T01:28:45.342Z,77.80
2019-04-30T01:31:11.806Z,77.80
2019-04-30T01:33:39.045Z,77.70
2019-04-30T01:36:11.674Z,77.60
2019-04-30T01:38:35.454Z,77.60
2019-04-30T01:41:01.897Z,77.40
2019-04-30T01:43:33.130Z,77.50
2019-04-30T01:46:01.781Z,77.40
2019-04-30T01:48:25.931Z,77.50
2019-04-30T01:50:52.375Z,77.70
2019-04-30T01:53:18.862Z,77.00
2019-04-30T01:55:49.924Z,77.30
2019-04-30T01:58:19.291Z,77.30
2019-04-30T02:00:49.305Z,77.60
2019-04-30T02:03:19.204Z,77.40
2019-04-30T02:05:45.338Z,77.40
2019-04-30T02:08:11.896Z,77.10
2019-04-30T02:10:38.317Z,76.70
2019-04-30T02:13:04.667Z,76.80
2019-04-30T02:15:31.209Z,76.80
2019-04-30T02:17:59.678Z,76.70
2019-04-30T02:20:33.547Z,77.30
2019-04-30T02:23:00.008Z,77.10
2019-04-30T02:25:26.376Z,76.80
2019-04-30T02:27:54.686Z,76.80
2019-04-30T02:30:21.144Z,76.90
2019-04-30T02:32:52.086Z,76.70
2019-04-30T02:35:19.398Z,76.70
2019-04-30T02:38:05.864Z,76.50
2019-04-30T02:40:32.218Z,77.20
2019-04-30T02:43:01.868Z,78.00
2019-04-30T02:45:30.038Z,77.20
2019-04-30T02:47:56.538Z,77.10
2019-04-30T02:50:22.900Z,76.90
2019-04-30T02:52:50.611Z,77.20
2019-04-30T02:55:24.157Z,77.10
2019-04-30T02:57:51.593Z,77.00
2019-04-30T03:00:20.792Z,77.20
2019-04-30T03:02:50.248Z,77.70
2019-04-30T03:05:16.088Z,77.70
2019-04-30T03:07:42.383Z,77.50
2019-04-30T03:10:10.140Z,77.50
2019-04-30T03:12:36.780Z,77.60
2019-04-30T03:15:04.985Z,77.80
2019-04-30T03:17:36.132Z,77.80
2019-04-30T03:20:30.955Z,78.20
2019-04-30T03:22:43.777Z,77.90
2019-04-30T03:25:10.245Z,78.20
2019-04-30T03:27:36.664Z,78.00
2019-04-30T03:30:05.442Z,78.10
2019-04-30T03:32:36.797Z,78.70
2019-04-30T03:35:03.196Z,79.30
2019-04-30T03:37:29.748Z,79.10
2019-04-30T03:39:56.265Z,78.50
2019-04-30T03:42:22.687Z,78.40
2019-04-30T03:44:49.752Z,78.80
2019-04-30T03:47:16.316Z,78.70
2019-04-30T03:49:43.867Z,78.80
2019-04-30T03:52:13.327Z,78.90
2019-04-30T03:54:40.828Z,78.90
2019-04-30T03:57:06.837Z,79.50
2019-04-30T03:59:34.296Z,79.50
2019-04-30T04:02:12.228Z,79.50
2019-04-30T04:04:49.439Z,80.00
2019-04-30T04:07:34.726Z,80.00
2019-04-30T04:10:21.711Z,80.20
2019-04-30T04:12:49.828Z,80.60
2019-04-30T04:15:16.470Z,80.50
2019-04-30T04:17:43.952Z,81.40
2019-04-30T04:20:10.906Z,79.90
2019-04-30T04:22:40.084Z,79.80
2019-04-30T04:25:05.913Z,79.40
2019-04-30T04:27:32.371Z,79.50
2019-04-30T04:30:01.018Z,79.70
2019-04-30T04:32:30.866Z,80.10
2019-04-30T04:34:56.400Z,80.30
2019-04-30T04:37:22.868Z,80.40
2019-04-30T04:39:50.554Z,80.60
2019-04-30T04:42:19.449Z,80.60
2019-04-30T04:44:45.567Z,81.00
2019-04-30T04:47:12.570Z,81.50
2019-04-30T04:49:40.306Z,81.40
2019-04-30T04:52:06.603Z,81.40
2019-04-30T04:54:33.195Z,81.60
2019-04-30T04:57:13.192Z,82.20
2019-04-30T04:59:29.696Z,81.50
2019-04-30T05:01:57.225Z,82.50
2019-04-30T05:04:23.598Z,81.80
2019-04-30T05:06:50.073Z,81.50
2019-04-30T05:09:16.652Z,82.70
2019-04-30T05:11:43.094Z,82.40
2019-04-30T05:14:10.930Z,82.20
2019-04-30T05:16:38.922Z,81.90
2019-04-30T05:19:08.573Z,81.40
2019-04-30T05:21:42.819Z,81.10
2019-04-30T05:24:04.799Z,80.90
2019-04-30T05:26:31.248Z,80.20
2019-04-30T05:28:59.112Z,79.80
2019-04-30T05:31:26.054Z,79.60
2019-04-30T05:33:53.602Z,79.20
2019-04-30T05:36:20.073Z,79.20
2019-04-30T05:38:48.754Z,79.60
2019-04-30T05:41:15.299Z,79.40
2019-04-30T05:43:41.827Z,79.20
2019-04-30T05:46:11.025Z,80.20
2019-04-30T05:48:39.523Z,79.50
2019-04-30T05:51:05.934Z,79.60
2019-04-30T05:53:32.361Z,79.70
2019-04-30T05:55:59.377Z,79.60
2019-04-30T05:58:26.022Z,79.60
2019-04-30T06:00:52.435Z,79.20
2019-04-30T06:03:27.753Z,78.70
2019-04-30T06:05:47.071Z,78.30
2019-04-30T06:08:19.108Z,77.10
2019-04-30T06:10:59.755Z,77.10
2019-04-30T06:13:28.747Z,77.50
2019-04-30T06:16:05.915Z,77.10
2019-04-30T06:18:32.519Z,77.00
2019-04-30T06:21:01.662Z,77.40
2019-04-30T06:23:34.047Z,77.50
2019-04-30T06:26:09.004Z,77.20
2019-04-30T06:28:29.266Z,76.70
2019-04-30T06:30:55.918Z,76.50
2019-04-30T06:33:22.359Z,76.20
2019-04-30T06:35:51.601Z,76.20
2019-04-30T06:38:18.533Z,76.20
2019-04-30T06:40:44.973Z,76.20
2019-04-30T06:43:11.786Z,75.70
2019-04-30T06:45:39.343Z,75.80
2019-04-30T06:48:05.764Z,75.50
2019-04-30T06:50:32.393Z,75.40
2019-04-30T06:53:01.685Z,75.00
2019-04-30T06:55:30.605Z,74.20
2019-04-30T06:57:56.427Z,74.10
2019-04-30T07:00:36.650Z,73.30
2019-04-30T07:03:03.353Z,72.30
2019-04-30T07:05:29.744Z,71.30
2019-04-30T07:08:16.159Z,70.50
2019-04-30T07:10:53.128Z,70.10
2019-04-30T07:13:12.761Z,67.60
2019-04-30T07:15:39.529Z,65.40
2019-04-30T07:18:06.042Z,66.60
2019-04-30T07:20:34.122Z,64.30
2019-04-30T07:23:03.153Z,65.00
2019-04-30T07:25:29.344Z,64.40
2019-04-30T07:27:55.794Z,63.40
2019-04-30T07:30:23.152Z,63.20
2019-04-30T07:32:49.473Z,60.60
2019-04-30T07:35:15.854Z,59.00
2019-04-30T07:37:44.470Z,58.80
2019-04-30T07:40:10.908Z,59.30
2019-04-30T07:42:44.514Z,59.00
2019-04-30T07:45:05.599Z,58.40
2019-04-30T07:47:33.143Z,59.00
2019-04-30T07:50:00.775Z,57.90
2019-04-30T07:52:33.388Z,57.50
2019-04-30T07:54:57.082Z,58.10
2019-04-30T07:57:23.460Z,55.90
2019-04-30T07:59:50.077Z,55.20
2019-04-30T08:02:16.529Z,57.00
2019-04-30T08:04:51.304Z,55.10
2019-04-30T08:07:19.886Z,54.70
2019-04-30T08:09:46.244Z,56.10
2019-04-30T08:12:22.288Z,54.30
2019-04-30T08:14:41.949Z,55.00
2019-04-30T08:17:08.834Z,53.60
2019-04-30T08:19:36.476Z,54.40
2019-04-30T08:22:02.868Z,54.50
2019-04-30T08:24:29.422Z,53.30
2019-04-30T08:26:55.847Z,54.10
2019-04-30T08:29:22.295Z,53.70
2019-04-30T08:31:49.014Z,53.70
2019-04-30T08:34:15.494Z,53.10
2019-04-30T08:36:43.667Z,51.90
2019-04-30T08:39:10.858Z,51.20
2019-04-30T08:41:39.153Z,50.10
2019-04-30T08:44:05.647Z,51.00
2019-04-30T08:46:32.066Z,51.00
2019-04-30T08:48:58.875Z,51.70
2019-04-30T08:51:25.440Z,52.40
2019-04-30T08:53:51.892Z,51.80
2019-04-30T08:56:21.954Z,53.20
2019-04-30T08:58:49.216Z,53.00
2019-04-30T09:01:16.619Z,52.40
2019-04-30T09:03:43.761Z,50.80
2019-04-30T09:06:15.324Z,52.10
2019-04-30T09:08:41.924Z,52.40
2019-04-30T09:11:22.086Z,52.20
2019-04-30T09:13:36.581Z,50.20
2019-04-30T09:16:03.138Z,51.20
2019-04-30T09:18:31.446Z,51.10
2019-04-30T09:21:06.089Z,50.00
2019-04-30T09:23:40.561Z,49.30
2019-04-30T09:25:58.763Z,49.40
2019-04-30T09:28:29.470Z,50.10
2019-04-30T09:30:59.991Z,50.60
2019-04-30T09:33:25.041Z,48.40
2019-04-30T09:35:51.474Z,50.80
2019-04-30T09:38:19.531Z,48.20
2019-04-30T09:40:47.449Z,46.90
2019-04-30T09:43:14.877Z,48.00
2019-04-30T09:45:41.200Z,48.10
2019-04-30T09:48:09.376Z,50.80
2019-04-30T09:50:36.184Z,49.70
2019-04-30T09:53:02.953Z,48.00
2019-04-30T09:55:29.488Z,48.60
2019-04-30T09:57:56.023Z,48.70
2019-04-30T10:00:22.578Z,49.40
2019-04-30T10:02:50.578Z,49.60
2019-04-30T10:05:19.423Z,49.50
2019-04-30T10:07:46.328Z,49.10
2019-04-30T10:10:14.715Z,50.20
2019-04-30T10:12:41.087Z,51.80
2019-04-30T10:15:09.128Z,50.30
2019-04-30T10:17:43.253Z,51.20
2019-04-30T10:20:10.480Z,51.80
2019-04-30T10:22:39.905Z,50.30
2019-04-30T10:25:09.260Z,50.60
2019-04-30T10:27:35.791Z,50.80
2019-04-30T10:30:04.202Z,51.60
2019-04-30T10:32:30.919Z,51.80
2019-04-30T10:34:57.276Z,52.80
2019-04-30T10:37:23.570Z,51.30
2019-04-30T10:39:49.938Z,48.70
2019-04-30T10:42:17.606Z,48.40
2019-04-30T10:44:43.976Z,48.40
2019-04-30T10:47:12.483Z,48.60
2019-04-30T10:49:39.084Z,48.70
2019-04-30T10:52:05.588Z,49.10
2019-04-30T10:54:32.054Z,47.20
2019-04-30T10:56:59.159Z,48.60
2019-04-30T10:59:25.871Z,48.30
2019-04-30T11:01:52.270Z,50.70
2019-04-30T11:04:19.962Z,48.80
2019-04-30T11:06:46.416Z,50.20
2019-04-30T11:09:14.315Z,48.50
2019-04-30T11:11:40.684Z,47.70
2019-04-30T11:14:07.007Z,47.20
2019-04-30T11:16:33.447Z,45.30
2019-04-30T11:18:59.968Z,44.10
2019-04-30T11:21:26.641Z,44.50
2019-04-30T11:23:53.277Z,45.50
2019-04-30T11:26:20.305Z,45.70
2019-04-30T11:28:47.344Z,44.70
2019-04-30T11:31:17.021Z,45.20
2019-04-30T11:33:43.926Z,47.00
2019-04-30T11:36:10.593Z,45.60
2019-04-30T11:38:38.813Z,46.40
2019-04-30T11:41:05.299Z,44.70
2019-04-30T11:43:32.275Z,44.40
2019-04-30T11:46:21.111Z,45.40
2019-04-30T11:48:49.018Z,44.60
2019-04-30T11:51:15.486Z,45.60
2019-04-30T11:53:41.985Z,45.60
2019-04-30T11:56:08.393Z,45.70
2019-04-30T11:58:34.693Z,46.20
2019-04-30T12:01:01.244Z,46.30
2019-04-30T12:03:30.106Z,46.60
2019-04-30T12:05:58.827Z,46.70
2019-04-30T12:08:29.351Z,46.40
2019-04-30T12:11:00.508Z,46.00
2019-04-30T12:13:28.642Z,46.10
2019-04-30T12:15:55.434Z,45.80
2019-04-30T12:18:21.823Z,46.20
2019-04-30T12:20:48.337Z,45.10
2019-04-30T12:23:14.818Z,46.70
2019-04-30T12:25:41.367Z,42.70
2019-04-30T12:28:09.499Z,40.90
2019-04-30T12:30:36.279Z,43.20
2019-04-30T12:33:02.915Z,45.30
2019-04-30T12:35:29.380Z,45.50
2019-04-30T12:37:55.897Z,45.90
2019-04-30T12:40:29.072Z,45.30
2019-04-30T12:42:50.783Z,45.40
2019-04-30T12:45:19.440Z,46.20
2019-04-30T12:47:48.003Z,43.90
2019-04-30T12:50:30.424Z,44.80
2019-04-30T12:53:04.770Z,42.60
2019-04-30T12:55:34.326Z,41.40
2019-04-30T12:58:02.319Z,42.60
2019-04-30T13:00:30.369Z,43.00
2019-04-30T13:02:56.815Z,42.90
2019-04-30T13:05:23.224Z,40.90
2019-04-30T13:07:50.816Z,40.60
2019-04-30T13:10:18.464Z,41.90
2019-04-30T13:12:45.879Z,42.70
2019-04-30T13:15:12.632Z,42.80
2019-04-30T13:17:39.164Z,41.60
2019-04-30T13:20:17.836Z,42.90
2019-04-30T13:22:34.576Z,43.20
2019-04-30T13:25:01.222Z,43.60
2019-04-30T13:27:29.618Z,44.40
2019-04-30T13:30:07.719Z,43.40
2019-04-30T13:32:36.134Z,44.50
2019-04-30T13:35:04.736Z,44.00
2019-04-30T13:37:36.064Z,43.70
2019-04-30T13:40:08.075Z,43.70
2019-04-30T13:42:36.463Z,43.30
2019-04-30T13:45:04.981Z,43.50
2019-04-30T13:47:33.270Z,44.10
2019-04-30T13:49:59.726Z,44.20
2019-04-30T13:52:28.870Z,44.50
2019-04-30T13:54:55.739Z,43.30
2019-04-30T13:57:22.167Z,44.10
2019-04-30T13:59:50.904Z,43.50
2019-04-30T14:02:18.613Z,42.00
2019-04-30T14:04:47.010Z,43.40
2019-04-30T14:07:18.107Z,41.80
2019-04-30T14:09:44.377Z,42.60
2019-04-30T14:12:11.729Z,42.80
2019-04-30T14:14:39.548Z,42.40
2019-04-30T14:17:06.303Z,43.90
2019-04-30T14:19:32.695Z,44.80
2019-04-30T14:21:59.126Z,44.00
2019-04-30T14:24:27.188Z,44.50
2019-04-30T14:26:53.515Z,44.30
2019-04-30T14:29:21.784Z,43.60
2019-04-30T14:31:48.835Z,43.90
2019-04-30T14:34:16.175Z,43.60
2019-04-30T14:36:42.650Z,43.90
2019-04-30T14:39:14.447Z,45.90
2019-04-30T14:41:39.865Z,45.20
2019-04-30T14:44:07.925Z,44.40
2019-04-30T14:46:37.351Z,44.00
2019-04-30T14:49:27.874Z,43.50
2019-04-30T14:51:59.568Z,43.50
2019-04-30T14:54:37.023Z,42.60
2019-04-30T14:57:05.325Z,43.90
2019-04-30T14:59:40.500Z,43.60
2019-04-30T15:02:20.644Z,45.00
2019-04-30T15:04:48.751Z,45.40
2019-04-30T15:07:16.576Z,44.30
2019-04-30T15:09:43.070Z,43.90
2019-04-30T15:12:09.741Z,43.60
2019-04-30T15:14:36.331Z,46.60
2019-04-30T15:17:03.043Z,44.80
2019-04-30T15:19:29.837Z,44.40
2019-04-30T15:21:56.263Z,43.70
2019-04-30T15:24:24.594Z,43.40
2019-04-30T15:26:57.900Z,43.80
2019-04-30T15:29:20.214Z,45.70
2019-04-30T15:31:46.786Z,44.40
2019-04-30T15:34:13.663Z,44.60
2019-04-30T15:36:40.195Z,46.20
2019-04-30T15:39:08.711Z,46.40
2019-04-30T15:41:36.016Z,45.60
2019-04-30T15:44:02.774Z,44.10
2019-04-30T15:46:29.327Z,45.20
2019-04-30T15:48:56.252Z,47.00
2019-04-30T15:51:23.755Z,45.50
2019-04-30T15:53:50.203Z,45.10
2019-04-30T15:56:16.639Z,46.90
2019-04-30T15:58:44.934Z,47.60
2019-04-30T16:01:13.140Z,45.40
2019-04-30T16:03:42.674Z,45.60
2019-04-30T16:06:10.445Z,45.50
2019-04-30T16:08:49.035Z,46.60
2019-04-30T16:11:30.798Z,45.80
2019-04-30T16:14:02.372Z,46.10
2019-04-30T16:16:30.759Z,44.90
2019-04-30T16:18:58.807Z,44.30
2019-04-30T16:21:25.553Z,44.60
2019-04-30T16:23:52.008Z,44.00
2019-04-30T16:26:18.374Z,43.20
2019-04-30T16:28:45.943Z,44.10
2019-04-30T16:31:12.492Z,44.90
2019-04-30T16:33:39.435Z,45.00
2019-04-30T16:36:06.060Z,44.10
2019-04-30T16:38:32.583Z,44.50
2019-04-30T16:40:59.096Z,43.80
2019-04-30T16:43:25.573Z,41.90
2019-04-30T16:45:51.983Z,41.60
2019-04-30T16:48:19.422Z,41.90
2019-04-30T16:50:48.918Z,42.80
2019-04-30T16:53:17.778Z,43.50
2019-04-30T16:55:44.190Z,44.10
2019-04-30T16:58:10.665Z,45.80
2019-04-30T17:00:39.176Z,46.60
2019-04-30T17:03:16.466Z,45.90
2019-04-30T17:05:53.747Z,45.60
2019-04-30T17:08:25.645Z,46.30
2019-04-30T17:10:55.073Z,46.30
2019-04-30T17:13:38.962Z,46.30
2019-04-30T17:16:11.340Z,45.60
2019-04-30T17:18:38.732Z,45.20
2019-04-30T17:21:06.109Z,46.00
2019-04-30T17:23:32.823Z,47.80
2019-04-30T17:26:01.037Z,48.70
2019-04-30T17:28:28.560Z,48.60
2019-04-30T17:30:55.222Z,48.80
2019-04-30T17:33:21.786Z,48.40
2019-04-30T17:35:49.890Z,48.40
2019-04-30T17:38:16.391Z,48.50
2019-04-30T17:40:42.930Z,48.50
2019-04-30T17:43:09.390Z,48.40
2019-04-30T17:45:35.902Z,48.40
2019-04-30T17:48:04.057Z,48.50
2019-04-30T17:50:30.520Z,49.20
2019-04-30T17:53:00.506Z,48.60
2019-04-30T17:55:29.040Z,48.40
2019-04-30T17:57:55.514Z,48.20
2019-04-30T18:00:22.547Z,49.10
2019-04-30T18:02:49.096Z,48.90
2019-04-30T18:05:15.639Z,49.50
2019-04-30T18:07:42.189Z,49.50
2019-04-30T18:10:14.961Z,49.20
2019-04-30T18:12:41.459Z,49.40
2019-04-30T18:15:14.258Z,49.70
2019-04-30T18:17:45.750Z,49.90
2019-04-30T18:20:23.216Z,50.30
2019-04-30T18:23:00.831Z,50.80
2019-04-30T18:25:40.021Z,51.60
2019-04-30T18:28:09.156Z,52.10
2019-04-30T18:30:39.100Z,52.60
2019-04-30T18:33:06.098Z,52.90
2019-04-30T18:35:33.069Z,53.60
2019-04-30T18:38:00.253Z,54.10
2019-04-30T18:40:26.758Z,54.60
2019-04-30T18:42:53.526Z,54.90
2019-04-30T18:45:20.242Z,55.50
2019-04-30T18:47:46.831Z,55.90
2019-04-30T18:50:13.398Z,56.00
2019-04-30T18:52:40.664Z,56.10
2019-04-30T18:55:09.238Z,56.20
2019-04-30T18:57:36.529Z,56.40
2019-04-30T19:00:05.420Z,56.60
2019-04-30T19:02:32.080Z,56.40
2019-04-30T19:04:59.522Z,56.40
2019-04-30T19:07:29.228Z,57.20
2019-04-30T19:10:14.387Z,56.50
2019-04-30T19:12:44.406Z,56.60
2019-04-30T19:15:48.593Z,56.60
2019-04-30T19:17:59.723Z,56.70
2019-04-30T19:20:30.757Z,56.90
2019-04-30T19:22:57.295Z,57.00
2019-04-30T19:25:23.878Z,56.90
2019-04-30T19:27:50.391Z,57.00
2019-04-30T19:30:19.132Z,57.00
2019-04-30T19:32:45.688Z,56.90
2019-04-30T19:35:12.098Z,56.90
2019-04-30T19:37:40.269Z,56.90
2019-04-30T19:40:08.937Z,56.80
2019-04-30T19:42:35.533Z,56.70
2019-04-30T19:45:09.504Z,56.40
2019-04-30T19:47:31.573Z,56.60
2019-04-30T19:49:59.463Z,57.40
2019-04-30T19:52:26.094Z,57.30
2019-04-30T19:54:52.618Z,57.80
2019-04-30T19:57:20.027Z,57.90
2019-04-30T19:59:49.086Z,58.00
2019-04-30T20:02:15.724Z,58.20
2019-04-30T20:04:42.379Z,58.20
2019-04-30T20:07:08.839Z,58.00
2019-04-30T20:09:35.462Z,57.90
2019-04-30T20:12:02.132Z,58.00
2019-04-30T20:14:29.233Z,58.00
2019-04-30T20:16:55.897Z,58.20
2019-04-30T20:19:22.488Z,58.10
2019-04-30T20:21:53.619Z,58.10
2019-04-30T20:24:19.048Z,58.00
2019-04-30T20:26:45.420Z,58.10
2019-04-30T20:29:12.927Z,58.00
2019-04-30T20:31:39.709Z,58.00
2019-04-30T20:34:16.366Z,57.90
2019-04-30T20:36:45.928Z,58.00
2019-04-30T20:39:17.383Z,58.20
2019-04-30T20:41:43.792Z,58.30
2019-04-30T20:44:10.583Z,58.40
2019-04-30T20:46:39.180Z,58.30
2019-04-30T20:49:05.331Z,58.50
2019-04-30T20:51:31.713Z,58.50
2019-04-30T20:53:59.180Z,58.80
2019-04-30T20:56:26.024Z,58.80
2019-04-30T20:58:57.388Z,58.80
2019-04-30T21:01:20.626Z,58.90
2019-04-30T21:03:47.084Z,58.90
2019-04-30T21:06:13.529Z,59.10
2019-04-30T21:08:40.147Z,59.40
2019-04-30T21:11:06.590Z,59.90
2019-04-30T21:13:33.003Z,59.30
2019-04-30T21:15:59.604Z,59.00
2019-04-30T21:18:30.517Z,59.20
2019-04-30T21:20:56.097Z,59.30
2019-04-30T21:23:22.509Z,59.00
2019-04-30T21:25:49.783Z,59.10
2019-04-30T21:28:16.169Z,59.10
2019-04-30T21:30:42.571Z,59.10
2019-04-30T21:33:13.794Z,59.20
2019-04-30T21:35:42.102Z,59.40
2019-04-30T21:38:09.411Z,59.70
2019-04-30T21:40:44.995Z,59.70
2019-04-30T21:43:11.392Z,59.80
2019-04-30T21:45:39.841Z,60.20
2019-04-30T21:48:05.999Z,60.00
2019-04-30T21:50:32.386Z,60.10
2019-04-30T21:52:59.711Z,60.10
2019-04-30T21:55:26.362Z,60.30
2019-04-30T21:57:52.864Z,60.50
2019-04-30T22:00:29.706Z,60.70
2019-04-30T22:02:59.770Z,60.90
2019-04-30T22:05:26.330Z,60.80
2019-04-30T22:07:52.768Z,61.20
2019-04-30T22:10:21.099Z,61.10
2019-04-30T22:12:48.916Z,61.20
2019-04-30T22:15:15.298Z,61.20
2019-04-30T22:17:41.646Z,61.10
2019-04-30T22:20:10.713Z,61.40
2019-04-30T22:22:39.084Z,61.60
2019-04-30T22:25:05.525Z,61.70
2019-04-30T22:27:31.941Z,61.80
2019-04-30T22:29:58.276Z,62.10
2019-04-30T22:32:24.715Z,62.30
2019-04-30T22:34:51.600Z,62.10
2019-04-30T22:37:19.542Z,62.40
2019-04-30T22:39:49.467Z,62.50
2019-04-30T22:42:20.935Z,62.40
2019-04-30T22:44:47.673Z,62.30
2019-04-30T22:47:14.198Z,62.20
2019-04-30T22:49:40.694Z,62.00
2019-04-30T22:52:07.195Z,61.70
2019-04-30T22:54:33.621Z,62.10
2019-04-30T22:57:00.099Z,62.10
2019-04-30T22:59:26.769Z,62.10
2019-04-30T23:02:13.663Z,61.90
2019-04-30T23:04:45.014Z,61.70
2019-04-30T23:07:11.488Z,61.60
2019-04-30T23:09:38.053Z,61.40
2019-04-30T23:12:04.503Z,61.70
2019-04-30T23:14:31.077Z,61.80
2019-04-30T23:16:57.533Z,61.70
2019-04-30T23:19:23.986Z,61.80
2019-04-30T23:21:50.699Z,61.70
2019-04-30T23:24:17.105Z,61.60
2019-04-30T23:26:43.573Z,61.40
2019-04-30T23:29:10.170Z,61.50
2019-04-30T23:31:36.597Z,61.60
2019-04-30T23:34:02.989Z,61.60
2019-04-30T23:36:29.448Z,61.60
2019-04-30T23:38:55.782Z,61.90
2019-04-30T23:41:22.153Z,62.20
2019-04-30T23:43:51.232Z,62.20
2019-04-30T23:46:17.769Z,62.50
2019-04-30T23:48:44.336Z,62.60
2019-04-30T23:51:10.739Z,62.80
2019-04-30T23:53:37.096Z,62.80
2019-04-30T23:56:03.514Z,63.10
2019-04-30T23:58:30.004Z,63.50
